Chemtrans Mabuhay — A8XX9 — position and weather

sailwx.info

Track history (hours):
 
Tides and Currents Weather Stations Pressure Air Temp Water Temp Dewpoint Dewpoint Depression Visibility Wind Speed Wind Dir Waves Ship Positions

Chemtrans Mabuhay

Last reported at 2014-Jul-18 01:12 UTC. Time now 2014-Jul-25 23:04 UTC.
Position N 29°21' W 094°48'.

Length 140 m; draft 7.6 m.

Type: Ship. MMSI: 636092180.

Date/timePositionNaut miles runAvg speedWind from/ knotsBaromVisibWave heightAir tempDewpointWater temp
2014-Jul-18 01:12N 29°21' W 094°48'5 7.9
2014-Jul-18 00:33N 29°22' W 094°54'1 0.0
2014-Jul-16 14:32N 29°22' W 094°55'7 7.1
2014-Jul-16 13:33N 29°21' W 094°47'  
2014-Jul-13 18:31N 29°21' W 094°42'1110.9
2014-Jul-13 17:33N 29°28' W 094°51'1212.3
2014-Jul-13 16:33N 29°39' W 094°58'9 9.3
2014-Jul-13 15:33N 29°46' W 095°05'1 1.3
2014-Jul-13 14:25N 29°45' W 095°06'0 0.0
2014-Jul-13 13:31N 29°45' W 095°06'0 0.0
2014-Jul-13 10:19N 29°45' W 095°06'0 0.0
2014-Jul-13 09:19N 29°45' W 095°06'0 0.0
2014-Jul-13 08:28N 29°45' W 095°06'0 0.0
2014-Jul-13 02:25N 29°45' W 095°06'0 0.0
2014-Jul-13 01:31N 29°45' W 095°06'0 0.0
2014-Jul-13 00:07N 29°45' W 095°06'0 0.0
2014-Jul-12 23:28N 29°45' W 095°06'0 0.0
2014-Jul-12 22:28N 29°45' W 095°06'0 0.0
2014-Jul-12 21:28N 29°45' W 095°06'0 0.0
2014-Jul-12 20:31N 29°45' W 095°06'0 0.0
2014-Jul-12 19:25N 29°45' W 095°06'0 0.0
2014-Jul-12 15:19N 29°45' W 095°06'0 0.0
2014-Jul-11 17:07N 29°45' W 095°06'1 1.5
2014-Jul-11 16:33N 29°45' W 095°05'8 7.8
2014-Jul-11 15:33N 29°40' W 094°59'1212.1
2014-Jul-11 14:33N 29°30' W 094°52'  
Track history (hours):
 
Tides and Currents Weather Stations Pressure Air Temp Water Temp Dewpoint Dewpoint Depression Visibility Wind Speed Wind Dir Waves Ship Positions

Chemtrans Mabuhay

Last reported at 2014-Jul-18 01:12 UTC. Time now 2014-Jul-25 23:04 UTC.
Position N 29°21' W 094°48'.

Length 140 m; draft 7.6 m.

Type: Ship. MMSI: 636092180.

Date/timePositionNaut miles runAvg speedWind from/ knotsBaromVisibWave heightAir tempDewpointWater temp
2014-Jul-18 01:12N 29°21' W 094°48'5 7.9
2014-Jul-18 00:33N 29°22' W 094°54'1 0.0
2014-Jul-16 14:32N 29°22' W 094°55'7 7.1
2014-Jul-16 13:33N 29°21' W 094°47'  
2014-Jul-13 18:31N 29°21' W 094°42'1110.9
2014-Jul-13 17:33N 29°28' W 094°51'1212.3
2014-Jul-13 16:33N 29°39' W 094°58'9 9.3
2014-Jul-13 15:33N 29°46' W 095°05'1 1.3
2014-Jul-13 14:25N 29°45' W 095°06'0 0.0
2014-Jul-13 13:31N 29°45' W 095°06'0 0.0
2014-Jul-13 10:19N 29°45' W 095°06'0 0.0
2014-Jul-13 09:19N 29°45' W 095°06'0 0.0
2014-Jul-13 08:28N 29°45' W 095°06'0 0.0
2014-Jul-13 02:25N 29°45' W 095°06'0 0.0
2014-Jul-13 01:31N 29°45' W 095°06'0 0.0
2014-Jul-13 00:07N 29°45' W 095°06'0 0.0
2014-Jul-12 23:28N 29°45' W 095°06'0 0.0
2014-Jul-12 22:28N 29°45' W 095°06'0 0.0
2014-Jul-12 21:28N 29°45' W 095°06'0 0.0
2014-Jul-12 20:31N 29°45' W 095°06'0 0.0
2014-Jul-12 19:25N 29°45' W 095°06'0 0.0
2014-Jul-12 15:19N 29°45' W 095°06'0 0.0
2014-Jul-11 17:07N 29°45' W 095°06'1 1.5
2014-Jul-11 16:33N 29°45' W 095°05'8 7.8
2014-Jul-11 15:33N 29°40' W 094°59'1212.1
2014-Jul-11 14:33N 29°30' W 094°52'  

Dump ship's entire track history